CheckWX is a tool to help pilots better visualize weather data.  It is not intended as a substitute for an official pre-flight weather briefing.

07:35:47 UTC

EGGW METAR
London Luton Airport
London, United Kingdom
Current

16 mins ago

EGGW 060720Z AUTO 21015KT 7000 -RA BKN007/// BKN013/// //////TCU 10/10 Q1005
Observed
Dec-6 @ 07:20 UTC
Wind
  • 210° at 15 KTS
Visibility
7,000 meters
Flight Rules
IFR
Conditions
Light Rain
Cloud Levels
  • Broken at 700' AGL
  • Broken at 1,300' AGL
Temperature
10°C / 50°F
Dewpoint
10°C / 50°F
Humidity
100%
Altimeter
29.68" Hg
Pressure
1004.92 hPa
Previous

46 mins ago

EGGW 060650Z AUTO 21014KT 9999 -RA BKN007/// OVC016/// //////TCU 10/10 Q1005
Observed
Dec-6 @ 06:50 UTC
Wind
  • 210° at 14 KTS
Visibility
10,000+ meters
Flight Rules
IFR
Conditions
Light Rain
Cloud Levels
  • Broken at 700' AGL
  • Overcast at 1,600' AGL
Temperature
10°C / 50°F
Dewpoint
10°C / 50°F
Humidity
100%
Altimeter
29.68" Hg
Pressure
1004.92 hPa
Previous

1 hour ago

EGGW 060620Z AUTO 21013G24KT 8000 -RA BKN007/// BKN010/// //////TCU 10/09 Q1005 RERA REDZ
Observed
Dec-6 @ 06:20 UTC
Wind
  • 210° at 13 KTS
  • Gusting to 24 KTS
Visibility
8,000 meters
Flight Rules
IFR
Conditions
Light Rain
Cloud Levels
  • Broken at 700' AGL
  • Broken at 1,000' AGL
Temperature
10°C / 50°F
Dewpoint
C / 48°F
Humidity
94%
Altimeter
29.68" Hg
Pressure
1004.92 hPa